Mead, West Virginia
Current Conditions -  °F | °C
As of 12:51 AM on Wednesday 26 Nov 2014 (Local Time) from KBKW Reporting Station
Few Clouds Few Clouds  
Wind Chill: 37°   Ceiling: Unl
Heat Index: 40°   Visibility: 10mi
Dew Point: 24°   Wind: 5mph
Humidity: 53%   Direction: 20°NNE
Pressure: 30.04"   Gusts: NA
Location:  37.6245°N, 81.2855°W
Report Text: KBKW 260551Z AUTO 02004KT 10SM FEW120 04/M04 A3004 RMK AO2 SLP181 T00441044 10056 20028 58018
Loading
Personal Weather Stations






























Interactive Weather Map New forecast layout! Learn more

10-Day Weather Forecast

Advertisements
Track Severe Weather on mobile